Rechercher aéroport 
image banner adimage banner ad
image banner ad

FYLZ - Luderitz

Situé à Luderitz, Namibia

ICAO - FYLZ, IATA - LUD

Données fournies par Airmate  

Information générale

Coordonnées: S26°41'7" E15°14'44"
Élévation : 457 feet MSL.
 
Voir autres Aéroports à Karas

Données opérationnelles

Accessible au public
Heure actuelle UTC:
Heure actuelle locale:
Météo
METAR: FYLZ 182200Z AUTO 20008KT //// // ////// 18/15 Q1012
TAF: TAF FYLZ 182000Z 1821/1906 19010KT CAVOK BECMG 1822/1824 9999 BKN015
Voir NOTAMs / SUP AIP / TFR affectant cet aéroport [VIEW]
Fréquences de communication: [VIEW]

Pistes:

Identifiant RWYQFULongueur (ft)Largeur (ft)SurfaceLDA (ft)
1299°391498
30279°391498
0417°600498ASP
22197°600498

Coordonnées de l'aéroport

Adresse: Luderitz Namibia

Vue satellite de FYLZ